KHLG/HLG METAR and TAF weather

Enter ICAO airport designator
Station Type Date Time Source
KHLG METAR 2021/01/16 02:53 UTC NOAA

KHLG 160253Z 15005KT 10SM CLR M01/M02 A2968 RMK AO2 SLP062 T10061022 58002


Station Type Date Time Source
KHLG Decoded METAR 2021/01/16 02:53 UTC NOAA

WHEELING OHIO COUNTY AIRPORT, WV, United States (KHLG) 40-10N 080-39W 372M
Jan 15, 2021 - 09:53 PM EST / 2021.01.16 0253 UTC
Wind: from the SSE (150 degrees) at 6 MPH (5 KT):0
Visibility: 10 mile(s):0
Sky conditions: clear
Temperature: 30.9 F (-0.6 C)
Windchill: 24 F (-4 C):1
Dew Point: 28.0 F (-2.2 C)
Relative Humidity: 88%
Pressure (altimeter): 29.68 in. Hg (1005 hPa)
Pressure tendency: 0.01 inches (0.2 hPa) lower than three hours ago
ob: KHLG 160253Z 15005KT 10SM CLR M01/M02 A2968 RMK AO2 SLP062 T10061022 58002
cycle: 3

Station Type Date Time Source
KHLG TAF 2021/01/15 19:18 UTC NOAA

TAF
AMD KHLG 151917Z 1519/1618 22008KT 3SM -SN OVC008
FM160100 21006KT P6SM BKN025
FM160600 20005KT P6SM BKN060

Example: see airport list